sensor_id;sensor_type;location;lat;lon;timestamp;P1;durP1;ratioP1;P2;durP2;ratioP2
5539;SDS011;2792;52.452;9.752;2022-11-04T00:01:19;6.47;;;5.60;;
5539;SDS011;2792;52.452;9.752;2022-11-04T00:03:46;7.93;;;5.43;;
5539;SDS011;2792;52.452;9.752;2022-11-04T00:06:12;8.23;;;5.07;;
5539;SDS011;2792;52.452;9.752;2022-11-04T00:08:39;7.40;;;4.53;;
5539;SDS011;2792;52.452;9.752;2022-11-04T00:11:05;10.23;;;5.20;;
5539;SDS011;2792;52.452;9.752;2022-11-04T00:13:49;7.33;;;4.97;;
5539;SDS011;2792;52.452;9.752;2022-11-04T00:16:17;7.43;;;5.63;;
5539;SDS011;2792;52.452;9.752;2022-11-04T00:19:01;6.93;;;4.40;;
5539;SDS011;2792;52.452;9.752;2022-11-04T00:21:28;13.73;;;4.80;;
5539;SDS011;2792;52.452;9.752;2022-11-04T00:24:12;9.53;;;4.70;;
5539;SDS011;2792;52.452;9.752;2022-11-04T00:27:09;6.27;;;4.43;;
5539;SDS011;2792;52.452;9.752;2022-11-04T00:29:53;6.30;;;4.80;;
5539;SDS011;2792;52.452;9.752;2022-11-04T00:32:21;5.70;;;4.07;;
5539;SDS011;2792;52.452;9.752;2022-11-04T00:35:06;11.17;;;4.40;;
5539;SDS011;2792;52.452;9.752;2022-11-04T00:37:35;4.53;;;4.10;;
5539;SDS011;2792;52.452;9.752;2022-11-04T00:40:02;5.70;;;4.33;;
5539;SDS011;2792;52.452;9.752;2022-11-04T00:42:29;9.67;;;4.30;;
5539;SDS011;2792;52.452;9.752;2022-11-04T00:44:56;7.17;;;4.27;;
5539;SDS011;2792;52.452;9.752;2022-11-04T00:47:24;5.10;;;4.47;;
5539;SDS011;2792;52.452;9.752;2022-11-04T00:49:50;7.57;;;4.97;;
5539;SDS011;2792;52.452;9.752;2022-11-04T00:52:17;6.80;;;4.60;;
5539;SDS011;2792;52.452;9.752;2022-11-04T00:54:44;6.03;;;4.60;;
5539;SDS011;2792;52.452;9.752;2022-11-04T00:57:10;6.57;;;4.30;;
5539;SDS011;2792;52.452;9.752;2022-11-04T00:59:37;10.20;;;4.70;;
5539;SDS011;2792;52.452;9.752;2022-11-04T01:02:04;11.10;;;4.80;;
5539;SDS011;2792;52.452;9.752;2022-11-04T01:04:32;5.70;;;4.70;;
5539;SDS011;2792;52.452;9.752;2022-11-04T01:06:59;5.70;;;4.77;;
5539;SDS011;2792;52.452;9.752;2022-11-04T01:09:25;5.57;;;4.20;;
5539;SDS011;2792;52.452;9.752;2022-11-04T01:11:52;5.90;;;4.50;;
5539;SDS011;2792;52.452;9.752;2022-11-04T01:14:19;11.00;;;5.27;;
5539;SDS011;2792;52.452;9.752;2022-11-04T01:16:47;7.63;;;5.10;;
5539;SDS011;2792;52.452;9.752;2022-11-04T01:19:14;6.70;;;5.33;;
5539;SDS011;2792;52.452;9.752;2022-11-04T01:21:42;9.17;;;5.50;;
5539;SDS011;2792;52.452;9.752;2022-11-04T01:24:09;7.10;;;4.93;;
5539;SDS011;2792;52.452;9.752;2022-11-04T01:26:36;7.37;;;5.50;;
5539;SDS011;2792;52.452;9.752;2022-11-04T01:29:02;6.87;;;5.67;;
5539;SDS011;2792;52.452;9.752;2022-11-04T01:31:29;7.50;;;6.03;;
5539;SDS011;2792;52.452;9.752;2022-11-04T01:33:57;7.50;;;6.37;;
5539;SDS011;2792;52.452;9.752;2022-11-04T01:36:23;7.83;;;5.77;;
5539;SDS011;2792;52.452;9.752;2022-11-04T01:38:52;13.97;;;6.20;;
5539;SDS011;2792;52.452;9.752;2022-11-04T01:41:20;5.80;;;5.23;;
5539;SDS011;2792;52.452;9.752;2022-11-04T01:43:49;8.30;;;5.40;;
5539;SDS011;2792;52.452;9.752;2022-11-04T01:46:21;6.60;;;5.77;;
5539;SDS011;2792;52.452;9.752;2022-11-04T01:48:51;7.40;;;5.90;;
5539;SDS011;2792;52.452;9.752;2022-11-04T01:51:19;9.20;;;5.90;;
5539;SDS011;2792;52.452;9.752;2022-11-04T01:53:45;6.57;;;5.30;;
5539;SDS011;2792;52.452;9.752;2022-11-04T01:56:14;5.67;;;5.07;;
5539;SDS011;2792;52.452;9.752;2022-11-04T01:58:42;9.67;;;6.53;;
5539;SDS011;2792;52.452;9.752;2022-11-04T02:01:11;7.97;;;6.30;;
5539;SDS011;2792;52.452;9.752;2022-11-04T02:03:40;9.57;;;6.27;;
5539;SDS011;2792;52.452;9.752;2022-11-04T02:06:11;10.37;;;6.27;;
5539;SDS011;2792;52.452;9.752;2022-11-04T02:08:38;7.47;;;5.80;;
5539;SDS011;2792;52.452;9.752;2022-11-04T02:11:04;8.90;;;6.90;;
5539;SDS011;2792;52.452;9.752;2022-11-04T02:13:33;10.77;;;7.57;;
5539;SDS011;2792;52.452;9.752;2022-11-04T02:16:01;9.57;;;6.40;;
5539;SDS011;2792;52.452;9.752;2022-11-04T02:18:35;8.80;;;6.27;;
5539;SDS011;2792;52.452;9.752;2022-11-04T02:27:25;9.87;;;6.20;;
5539;SDS011;2792;52.452;9.752;2022-11-04T02:30:04;9.00;;;5.90;;
5539;SDS011;2792;52.452;9.752;2022-11-04T02:32:38;8.80;;;5.80;;
5539;SDS011;2792;52.452;9.752;2022-11-04T02:35:11;10.83;;;7.83;;
5539;SDS011;2792;52.452;9.752;2022-11-04T02:37:44;12.03;;;5.87;;
5539;SDS011;2792;52.452;9.752;2022-11-04T02:40:17;8.97;;;5.83;;
5539;SDS011;2792;52.452;9.752;2022-11-04T02:42:47;8.27;;;5.90;;
5539;SDS011;2792;52.452;9.752;2022-11-04T02:45:20;8.60;;;6.10;;
5539;SDS011;2792;52.452;9.752;2022-11-04T02:47:49;8.57;;;7.17;;
5539;SDS011;2792;52.452;9.752;2022-11-04T02:50:22;10.33;;;7.03;;
5539;SDS011;2792;52.452;9.752;2022-11-04T02:52:52;8.90;;;6.60;;
5539;SDS011;2792;52.452;9.752;2022-11-04T02:55:22;8.43;;;6.10;;
5539;SDS011;2792;52.452;9.752;2022-11-04T02:57:51;8.67;;;6.03;;
5539;SDS011;2792;52.452;9.752;2022-11-04T03:00:21;8.10;;;6.13;;
5539;SDS011;2792;52.452;9.752;2022-11-04T03:02:50;8.67;;;5.70;;
5539;SDS011;2792;52.452;9.752;2022-11-04T03:05:19;7.33;;;5.77;;
5539;SDS011;2792;52.452;9.752;2022-11-04T03:07:48;7.40;;;5.23;;
5539;SDS011;2792;52.452;9.752;2022-11-04T03:10:17;9.07;;;5.63;;
5539;SDS011;2792;52.452;9.752;2022-11-04T03:12:48;7.70;;;5.17;;
5539;SDS011;2792;52.452;9.752;2022-11-04T03:15:19;11.73;;;5.63;;
5539;SDS011;2792;52.452;9.752;2022-11-04T03:17:50;5.17;;;4.67;;
5539;SDS011;2792;52.452;9.752;2022-11-04T03:20:21;6.87;;;4.67;;
5539;SDS011;2792;52.452;9.752;2022-11-04T03:22:51;4.77;;;4.17;;
5539;SDS011;2792;52.452;9.752;2022-11-04T03:25:19;4.53;;;4.13;;
5539;SDS011;2792;52.452;9.752;2022-11-04T03:27:48;7.20;;;4.03;;
5539;SDS011;2792;52.452;9.752;2022-11-04T03:30:21;4.30;;;3.27;;
5539;SDS011;2792;52.452;9.752;2022-11-04T03:32:51;2.93;;;2.63;;
5539;SDS011;2792;52.452;9.752;2022-11-04T03:35:22;2.50;;;2.30;;
5539;SDS011;2792;52.452;9.752;2022-11-04T03:37:49;2.40;;;1.90;;
5539;SDS011;2792;52.452;9.752;2022-11-04T03:40:16;1.90;;;1.80;;
5539;SDS011;2792;52.452;9.752;2022-11-04T03:42:45;1.83;;;1.40;;
5539;SDS011;2792;52.452;9.752;2022-11-04T03:45:13;2.10;;;1.73;;
5539;SDS011;2792;52.452;9.752;2022-11-04T03:47:40;1.70;;;1.57;;
5539;SDS011;2792;52.452;9.752;2022-11-04T03:50:08;1.73;;;1.40;;
5539;SDS011;2792;52.452;9.752;2022-11-04T03:52:37;1.90;;;1.60;;
5539;SDS011;2792;52.452;9.752;2022-11-04T03:55:04;1.43;;;1.33;;
5539;SDS011;2792;52.452;9.752;2022-11-04T03:57:33;1.30;;;1.20;;
5539;SDS011;2792;52.452;9.752;2022-11-04T04:00:06;1.60;;;1.50;;
5539;SDS011;2792;52.452;9.752;2022-11-04T04:02:40;2.00;;;1.80;;
5539;SDS011;2792;52.452;9.752;2022-11-04T04:05:16;1.57;;;1.47;;
5539;SDS011;2792;52.452;9.752;2022-11-04T04:07:47;2.83;;;2.00;;
5539;SDS011;2792;52.452;9.752;2022-11-04T04:10:17;2.00;;;1.83;;
5539;SDS011;2792;52.452;9.752;2022-11-04T04:13:09;2.70;;;2.50;;
5539;SDS011;2792;52.452;9.752;2022-11-04T04:15:42;2.83;;;2.30;;
5539;SDS011;2792;52.452;9.752;2022-11-04T04:18:13;1.97;;;1.87;;
5539;SDS011;2792;52.452;9.752;2022-11-04T04:20:43;1.83;;;1.73;;
5539;SDS011;2792;52.452;9.752;2022-11-04T04:23:12;3.20;;;2.00;;
5539;SDS011;2792;52.452;9.752;2022-11-04T04:25:59;2.40;;;2.30;;
5539;SDS011;2792;52.452;9.752;2022-11-04T04:28:46;3.50;;;2.90;;
5539;SDS011;2792;52.452;9.752;2022-11-04T04:31:13;2.90;;;2.70;;
5539;SDS011;2792;52.452;9.752;2022-11-04T04:34:01;3.20;;;3.00;;
5539;SDS011;2792;52.452;9.752;2022-11-04T04:36:30;4.10;;;3.80;;
5539;SDS011;2792;52.452;9.752;2022-11-04T04:38:57;4.80;;;4.40;;
5539;SDS011;2792;52.452;9.752;2022-11-04T04:41:41;5.77;;;5.27;;
5539;SDS011;2792;52.452;9.752;2022-11-04T04:44:25;6.63;;;4.70;;
5539;SDS011;2792;52.452;9.752;2022-11-04T04:47:11;5.53;;;4.90;;
5539;SDS011;2792;52.452;9.752;2022-11-04T04:49:50;7.83;;;5.47;;
5539;SDS011;2792;52.452;9.752;2022-11-04T04:52:18;5.90;;;5.30;;
5539;SDS011;2792;52.452;9.752;2022-11-04T04:54:45;6.13;;;5.60;;
5539;SDS011;2792;52.452;9.752;2022-11-04T04:57:12;5.80;;;5.40;;
5539;SDS011;2792;52.452;9.752;2022-11-04T04:59:39;6.67;;;6.07;;
5539;SDS011;2792;52.452;9.752;2022-11-04T05:02:05;7.10;;;6.50;;
5539;SDS011;2792;52.452;9.752;2022-11-04T05:04:32;6.40;;;5.90;;
5539;SDS011;2792;52.452;9.752;2022-11-04T05:06:58;6.50;;;5.90;;
5539;SDS011;2792;52.452;9.752;2022-11-04T05:09:26;6.53;;;6.03;;
5539;SDS011;2792;52.452;9.752;2022-11-04T05:11:53;6.67;;;6.07;;
5539;SDS011;2792;52.452;9.752;2022-11-04T05:14:19;7.43;;;6.80;;
5539;SDS011;2792;52.452;9.752;2022-11-04T05:16:46;7.50;;;6.80;;
5539;SDS011;2792;52.452;9.752;2022-11-04T05:19:12;8.17;;;7.40;;
5539;SDS011;2792;52.452;9.752;2022-11-04T05:21:39;7.13;;;6.53;;
5539;SDS011;2792;52.452;9.752;2022-11-04T05:24:06;7.77;;;7.07;;
5539;SDS011;2792;52.452;9.752;2022-11-04T05:26:34;7.60;;;6.90;;
5539;SDS011;2792;52.452;9.752;2022-11-04T05:29:00;9.90;;;7.20;;
5539;SDS011;2792;52.452;9.752;2022-11-04T05:31:27;8.33;;;7.63;;
5539;SDS011;2792;52.452;9.752;2022-11-04T05:33:54;7.97;;;7.17;;
5539;SDS011;2792;52.452;9.752;2022-11-04T05:36:22;7.30;;;6.63;;
5539;SDS011;2792;52.452;9.752;2022-11-04T05:38:49;7.30;;;6.70;;
5539;SDS011;2792;52.452;9.752;2022-11-04T05:41:17;8.07;;;6.70;;
5539;SDS011;2792;52.452;9.752;2022-11-04T05:43:51;8.43;;;7.63;;
5539;SDS011;2792;52.452;9.752;2022-11-04T05:46:18;7.67;;;5.93;;
5539;SDS011;2792;52.452;9.752;2022-11-04T05:48:44;8.30;;;7.50;;
5539;SDS011;2792;52.452;9.752;2022-11-04T05:51:11;7.97;;;7.17;;
5539;SDS011;2792;52.452;9.752;2022-11-04T05:53:39;7.73;;;7.00;;
5539;SDS011;2792;52.452;9.752;2022-11-04T05:56:06;8.30;;;7.60;;
5539;SDS011;2792;52.452;9.752;2022-11-04T05:58:32;8.50;;;7.33;;
5539;SDS011;2792;52.452;9.752;2022-11-04T06:01:21;8.50;;;7.60;;
5539;SDS011;2792;52.452;9.752;2022-11-04T06:03:49;7.80;;;7.10;;
5539;SDS011;2792;52.452;9.752;2022-11-04T06:06:16;12.30;;;7.50;;
5539;SDS011;2792;52.452;9.752;2022-11-04T06:08:42;8.97;;;8.07;;
5539;SDS011;2792;52.452;9.752;2022-11-04T06:11:09;9.30;;;8.30;;
5539;SDS011;2792;52.452;9.752;2022-11-04T06:13:35;8.77;;;7.87;;
5539;SDS011;2792;52.452;9.752;2022-11-04T06:16:02;8.43;;;7.40;;
5539;SDS011;2792;52.452;9.752;2022-11-04T06:18:30;8.63;;;7.57;;
5539;SDS011;2792;52.452;9.752;2022-11-04T06:21:16;9.97;;;7.73;;
5539;SDS011;2792;52.452;9.752;2022-11-04T06:23:46;9.90;;;8.90;;
5539;SDS011;2792;52.452;9.752;2022-11-04T06:26:13;10.20;;;9.03;;
5539;SDS011;2792;52.452;9.752;2022-11-04T06:28:40;8.80;;;7.77;;
5539;SDS011;2792;52.452;9.752;2022-11-04T06:31:08;9.50;;;8.50;;
5539;SDS011;2792;52.452;9.752;2022-11-04T06:33:36;9.77;;;8.77;;
5539;SDS011;2792;52.452;9.752;2022-11-04T06:36:04;10.20;;;8.73;;
5539;SDS011;2792;52.452;9.752;2022-11-04T06:38:32;9.53;;;8.63;;
5539;SDS011;2792;52.452;9.752;2022-11-04T06:41:00;10.37;;;9.17;;
5539;SDS011;2792;52.452;9.752;2022-11-04T06:43:27;10.87;;;8.80;;
5539;SDS011;2792;52.452;9.752;2022-11-04T06:45:53;10.77;;;9.67;;
5539;SDS011;2792;52.452;9.752;2022-11-04T06:48:20;9.77;;;8.77;;
5539;SDS011;2792;52.452;9.752;2022-11-04T06:50:48;10.20;;;8.73;;
5539;SDS011;2792;52.452;9.752;2022-11-04T06:53:15;8.93;;;8.03;;
5539;SDS011;2792;52.452;9.752;2022-11-04T06:55:42;11.60;;;8.60;;
5539;SDS011;2792;52.452;9.752;2022-11-04T06:58:08;9.13;;;8.20;;
5539;SDS011;2792;52.452;9.752;2022-11-04T07:00:35;9.87;;;8.20;;
5539;SDS011;2792;52.452;9.752;2022-11-04T07:03:02;8.57;;;7.63;;
5539;SDS011;2792;52.452;9.752;2022-11-04T07:05:29;9.17;;;8.20;;
5539;SDS011;2792;52.452;9.752;2022-11-04T07:07:59;10.20;;;7.60;;
5539;SDS011;2792;52.452;9.752;2022-11-04T07:10:25;7.90;;;7.00;;
5539;SDS011;2792;52.452;9.752;2022-11-04T07:12:52;8.50;;;7.47;;
5539;SDS011;2792;52.452;9.752;2022-11-04T07:15:19;7.57;;;6.87;;
5539;SDS011;2792;52.452;9.752;2022-11-04T07:17:46;8.43;;;7.53;;
5539;SDS011;2792;52.452;9.752;2022-11-04T07:20:12;9.00;;;7.40;;
5539;SDS011;2792;52.452;9.752;2022-11-04T07:22:39;7.90;;;7.10;;
5539;SDS011;2792;52.452;9.752;2022-11-04T07:25:08;8.60;;;7.00;;
5539;SDS011;2792;52.452;9.752;2022-11-04T07:27:34;8.63;;;7.77;;
5539;SDS011;2792;52.452;9.752;2022-11-04T07:30:01;9.40;;;6.40;;
5539;SDS011;2792;52.452;9.752;2022-11-04T07:32:27;10.87;;;7.37;;
5539;SDS011;2792;52.452;9.752;2022-11-04T07:34:54;8.70;;;7.80;;
5539;SDS011;2792;52.452;9.752;2022-11-04T07:37:21;7.80;;;7.00;;
5539;SDS011;2792;52.452;9.752;2022-11-04T07:39:47;7.83;;;7.03;;
5539;SDS011;2792;52.452;9.752;2022-11-04T07:42:15;8.03;;;7.23;;
5539;SDS011;2792;52.452;9.752;2022-11-04T07:44:42;9.10;;;7.83;;
5539;SDS011;2792;52.452;9.752;2022-11-04T07:47:08;9.50;;;7.00;;
5539;SDS011;2792;52.452;9.752;2022-11-04T07:49:35;7.77;;;6.87;;
5539;SDS011;2792;52.452;9.752;2022-11-04T07:52:02;9.33;;;5.90;;
5539;SDS011;2792;52.452;9.752;2022-11-04T07:54:28;8.33;;;6.80;;
5539;SDS011;2792;52.452;9.752;2022-11-04T07:56:55;10.03;;;6.23;;
5539;SDS011;2792;52.452;9.752;2022-11-04T07:59:23;7.43;;;5.77;;
5539;SDS011;2792;52.452;9.752;2022-11-04T08:01:49;5.63;;;5.13;;
5539;SDS011;2792;52.452;9.752;2022-11-04T08:04:16;6.93;;;5.67;;
5539;SDS011;2792;52.452;9.752;2022-11-04T08:06:43;5.70;;;5.10;;
5539;SDS011;2792;52.452;9.752;2022-11-04T08:09:10;6.43;;;5.07;;
5539;SDS011;2792;52.452;9.752;2022-11-04T08:11:37;5.33;;;4.70;;
5539;SDS011;2792;52.452;9.752;2022-11-04T08:14:04;5.73;;;5.03;;
5539;SDS011;2792;52.452;9.752;2022-11-04T08:16:32;4.90;;;4.50;;
5539;SDS011;2792;52.452;9.752;2022-11-04T08:18:58;6.43;;;4.67;;
5539;SDS011;2792;52.452;9.752;2022-11-04T08:21:26;8.83;;;4.37;;
5539;SDS011;2792;52.452;9.752;2022-11-04T08:23:53;6.50;;;4.43;;
5539;SDS011;2792;52.452;9.752;2022-11-04T08:26:20;5.00;;;4.50;;
5539;SDS011;2792;52.452;9.752;2022-11-04T08:28:47;6.77;;;4.97;;
5539;SDS011;2792;52.452;9.752;2022-11-04T08:31:15;5.83;;;4.60;;
5539;SDS011;2792;52.452;9.752;2022-11-04T08:33:44;5.30;;;4.40;;
5539;SDS011;2792;52.452;9.752;2022-11-04T08:36:12;4.50;;;4.10;;
5539;SDS011;2792;52.452;9.752;2022-11-04T08:38:40;8.20;;;4.40;;
5539;SDS011;2792;52.452;9.752;2022-11-04T08:41:07;10.77;;;4.57;;
5539;SDS011;2792;52.452;9.752;2022-11-04T08:43:34;3.90;;;3.60;;
5539;SDS011;2792;52.452;9.752;2022-11-04T08:46:01;4.10;;;3.70;;
5539;SDS011;2792;52.452;9.752;2022-11-04T08:48:30;5.67;;;4.07;;
5539;SDS011;2792;52.452;9.752;2022-11-04T08:50:58;4.23;;;3.83;;
5539;SDS011;2792;52.452;9.752;2022-11-04T08:53:25;5.30;;;4.33;;
5539;SDS011;2792;52.452;9.752;2022-11-04T08:55:51;3.60;;;3.30;;
5539;SDS011;2792;52.452;9.752;2022-11-04T08:58:18;8.33;;;4.43;;
5539;SDS011;2792;52.452;9.752;2022-11-04T09:00:46;11.90;;;4.00;;
5539;SDS011;2792;52.452;9.752;2022-11-04T09:03:13;6.43;;;3.70;;
5539;SDS011;2792;52.452;9.752;2022-11-04T09:05:40;6.67;;;4.37;;
5539;SDS011;2792;52.452;9.752;2022-11-04T09:08:11;4.80;;;3.60;;
5539;SDS011;2792;52.452;9.752;2022-11-04T09:10:39;6.00;;;3.67;;
5539;SDS011;2792;52.452;9.752;2022-11-04T09:13:06;4.27;;;3.70;;
5539;SDS011;2792;52.452;9.752;2022-11-04T09:15:34;7.80;;;3.80;;
5539;SDS011;2792;52.452;9.752;2022-11-04T09:18:01;5.87;;;3.50;;
5539;SDS011;2792;52.452;9.752;2022-11-04T09:20:27;3.90;;;3.50;;
5539;SDS011;2792;52.452;9.752;2022-11-04T09:22:54;7.63;;;3.60;;
5539;SDS011;2792;52.452;9.752;2022-11-04T09:25:22;4.00;;;3.70;;
5539;SDS011;2792;52.452;9.752;2022-11-04T09:27:49;9.63;;;4.13;;
5539;SDS011;2792;52.452;9.752;2022-11-04T09:30:15;4.00;;;3.60;;
5539;SDS011;2792;52.452;9.752;2022-11-04T09:32:42;5.13;;;3.53;;
5539;SDS011;2792;52.452;9.752;2022-11-04T09:35:09;4.00;;;3.70;;
5539;SDS011;2792;52.452;9.752;2022-11-04T09:37:35;5.27;;;3.83;;
5539;SDS011;2792;52.452;9.752;2022-11-04T09:40:02;3.77;;;3.30;;
5539;SDS011;2792;52.452;9.752;2022-11-04T09:42:37;8.30;;;3.43;;
5539;SDS011;2792;52.452;9.752;2022-11-04T09:45:12;5.83;;;3.47;;
5539;SDS011;2792;52.452;9.752;2022-11-04T09:47:40;3.83;;;3.50;;
5539;SDS011;2792;52.452;9.752;2022-11-04T09:50:09;15.87;;;4.10;;
5539;SDS011;2792;52.452;9.752;2022-11-04T09:52:40;4.40;;;3.93;;
5539;SDS011;2792;52.452;9.752;2022-11-04T09:55:10;7.70;;;3.43;;
5539;SDS011;2792;52.452;9.752;2022-11-04T09:57:41;5.30;;;3.80;;
5539;SDS011;2792;52.452;9.752;2022-11-04T10:00:09;4.97;;;3.50;;
5539;SDS011;2792;52.452;9.752;2022-11-04T10:02:42;6.23;;;3.43;;
5539;SDS011;2792;52.452;9.752;2022-11-04T10:05:17;4.10;;;3.50;;
5539;SDS011;2792;52.452;9.752;2022-11-04T10:07:57;6.53;;;3.90;;
5539;SDS011;2792;52.452;9.752;2022-11-04T10:10:31;5.57;;;3.30;;
5539;SDS011;2792;52.452;9.752;2022-11-04T10:13:09;7.10;;;3.70;;
5539;SDS011;2792;52.452;9.752;2022-11-04T10:15:54;6.60;;;3.63;;
5539;SDS011;2792;52.452;9.752;2022-11-04T10:18:33;5.07;;;3.17;;
5539;SDS011;2792;52.452;9.752;2022-11-04T10:21:08;6.10;;;3.37;;
5539;SDS011;2792;52.452;9.752;2022-11-04T10:23:40;5.00;;;3.40;;
5539;SDS011;2792;52.452;9.752;2022-11-04T10:26:09;6.43;;;3.43;;
5539;SDS011;2792;52.452;9.752;2022-11-04T10:28:42;5.50;;;2.87;;
5539;SDS011;2792;52.452;9.752;2022-11-04T10:31:12;3.43;;;2.63;;
5539;SDS011;2792;52.452;9.752;2022-11-04T10:33:40;3.53;;;3.10;;
5539;SDS011;2792;52.452;9.752;2022-11-04T10:36:08;3.37;;;3.07;;
5539;SDS011;2792;52.452;9.752;2022-11-04T10:38:37;3.03;;;2.73;;
5539;SDS011;2792;52.452;9.752;2022-11-04T10:41:11;3.80;;;2.80;;
5539;SDS011;2792;52.452;9.752;2022-11-04T10:43:44;6.33;;;3.50;;
5539;SDS011;2792;52.452;9.752;2022-11-04T10:46:15;4.70;;;3.20;;
5539;SDS011;2792;52.452;9.752;2022-11-04T10:48:47;5.00;;;3.20;;
5539;SDS011;2792;52.452;9.752;2022-11-04T10:51:16;4.83;;;3.37;;
5539;SDS011;2792;52.452;9.752;2022-11-04T10:53:49;9.73;;;4.00;;
5539;SDS011;2792;52.452;9.752;2022-11-04T10:56:31;4.23;;;3.40;;
5539;SDS011;2792;52.452;9.752;2022-11-04T10:59:04;9.07;;;4.33;;
5539;SDS011;2792;52.452;9.752;2022-11-04T11:01:38;5.93;;;3.73;;
5539;SDS011;2792;52.452;9.752;2022-11-04T11:04:13;6.50;;;4.50;;
5539;SDS011;2792;52.452;9.752;2022-11-04T11:06:50;8.10;;;3.80;;
5539;SDS011;2792;52.452;9.752;2022-11-04T11:09:19;5.20;;;3.70;;
5539;SDS011;2792;52.452;9.752;2022-11-04T11:11:50;8.97;;;3.30;;
5539;SDS011;2792;52.452;9.752;2022-11-04T11:14:19;5.93;;;3.67;;
5539;SDS011;2792;52.452;9.752;2022-11-04T11:16:57;7.27;;;3.30;;
5539;SDS011;2792;52.452;9.752;2022-11-04T11:19:48;3.70;;;3.07;;
5539;SDS011;2792;52.452;9.752;2022-11-04T11:22:29;3.63;;;3.27;;
5539;SDS011;2792;52.452;9.752;2022-11-04T11:25:11;5.80;;;3.10;;
5539;SDS011;2792;52.452;9.752;2022-11-04T11:27:39;6.23;;;4.00;;
5539;SDS011;2792;52.452;9.752;2022-11-04T11:30:18;5.10;;;3.90;;
5539;SDS011;2792;52.452;9.752;2022-11-04T11:32:51;3.50;;;3.20;;
5539;SDS011;2792;52.452;9.752;2022-11-04T11:35:21;5.00;;;3.13;;
5539;SDS011;2792;52.452;9.752;2022-11-04T11:37:49;4.67;;;3.60;;
5539;SDS011;2792;52.452;9.752;2022-11-04T11:40:26;7.93;;;5.20;;
5539;SDS011;2792;52.452;9.752;2022-11-04T11:42:55;4.50;;;3.80;;
5539;SDS011;2792;52.452;9.752;2022-11-04T11:45:24;6.07;;;3.27;;
5539;SDS011;2792;52.452;9.752;2022-11-04T11:47:51;7.10;;;3.30;;
5539;SDS011;2792;52.452;9.752;2022-11-04T11:50:20;4.60;;;3.57;;
5539;SDS011;2792;52.452;9.752;2022-11-04T11:52:50;4.83;;;3.57;;
5539;SDS011;2792;52.452;9.752;2022-11-04T11:55:19;7.03;;;3.70;;
5539;SDS011;2792;52.452;9.752;2022-11-04T11:57:51;4.10;;;3.67;;
5539;SDS011;2792;52.452;9.752;2022-11-04T12:00:22;3.50;;;3.20;;
5539;SDS011;2792;52.452;9.752;2022-11-04T12:02:57;4.20;;;3.87;;
5539;SDS011;2792;52.452;9.752;2022-11-04T12:05:26;6.70;;;3.87;;
5539;SDS011;2792;52.452;9.752;2022-11-04T12:07:59;8.00;;;4.83;;
5539;SDS011;2792;52.452;9.752;2022-11-04T12:10:32;6.53;;;4.80;;
5539;SDS011;2792;52.452;9.752;2022-11-04T12:13:03;5.80;;;4.17;;
5539;SDS011;2792;52.452;9.752;2022-11-04T12:15:46;4.77;;;4.37;;
5539;SDS011;2792;52.452;9.752;2022-11-04T12:18:27;7.60;;;3.77;;
5539;SDS011;2792;52.452;9.752;2022-11-04T12:21:00;5.10;;;3.90;;
5539;SDS011;2792;52.452;9.752;2022-11-04T12:23:32;5.27;;;3.00;;
5539;SDS011;2792;52.452;9.752;2022-11-04T12:26:09;5.27;;;3.17;;
5539;SDS011;2792;52.452;9.752;2022-11-04T12:28:45;4.23;;;3.00;;
5539;SDS011;2792;52.452;9.752;2022-11-04T12:31:24;5.23;;;2.50;;
5539;SDS011;2792;52.452;9.752;2022-11-04T12:34:00;2.30;;;2.00;;
5539;SDS011;2792;52.452;9.752;2022-11-04T12:36:37;5.43;;;2.13;;
5539;SDS011;2792;52.452;9.752;2022-11-04T12:39:24;2.33;;;2.10;;
5539;SDS011;2792;52.452;9.752;2022-11-04T12:42:01;4.47;;;2.20;;
5539;SDS011;2792;52.452;9.752;2022-11-04T12:44:32;5.53;;;2.63;;
5539;SDS011;2792;52.452;9.752;2022-11-04T12:47:09;7.13;;;2.50;;
5539;SDS011;2792;52.452;9.752;2022-11-04T12:52:37;2.53;;;2.33;;
5539;SDS011;2792;52.452;9.752;2022-11-04T12:55:16;2.43;;;2.13;;
5539;SDS011;2792;52.452;9.752;2022-11-04T12:57:49;5.20;;;2.60;;
5539;SDS011;2792;52.452;9.752;2022-11-04T13:00:20;2.30;;;1.57;;
5539;SDS011;2792;52.452;9.752;2022-11-04T13:02:53;3.30;;;1.97;;
5539;SDS011;2792;52.452;9.752;2022-11-04T13:05:36;2.83;;;1.97;;
5539;SDS011;2792;52.452;9.752;2022-11-04T13:08:09;4.00;;;1.97;;
5539;SDS011;2792;52.452;9.752;2022-11-04T13:10:39;1.90;;;1.80;;
5539;SDS011;2792;52.452;9.752;2022-11-04T13:13:09;4.03;;;2.67;;
5539;SDS011;2792;52.452;9.752;2022-11-04T13:15:39;3.60;;;2.60;;
5539;SDS011;2792;52.452;9.752;2022-11-04T13:18:11;6.33;;;2.70;;
5539;SDS011;2792;52.452;9.752;2022-11-04T13:20:41;4.20;;;2.57;;
5539;SDS011;2792;52.452;9.752;2022-11-04T13:23:13;4.00;;;2.20;;
5539;SDS011;2792;52.452;9.752;2022-11-04T13:25:43;6.00;;;2.50;;
5539;SDS011;2792;52.452;9.752;2022-11-04T13:28:12;4.53;;;2.40;;
5539;SDS011;2792;52.452;9.752;2022-11-04T13:30:42;4.90;;;2.50;;
5539;SDS011;2792;52.452;9.752;2022-11-04T13:33:19;2.80;;;2.50;;
5539;SDS011;2792;52.452;9.752;2022-11-04T13:35:50;2.60;;;2.40;;
5539;SDS011;2792;52.452;9.752;2022-11-04T13:38:21;3.97;;;2.70;;
5539;SDS011;2792;52.452;9.752;2022-11-04T13:40:51;3.90;;;2.47;;
5539;SDS011;2792;52.452;9.752;2022-11-04T13:43:26;4.70;;;2.30;;
5539;SDS011;2792;52.452;9.752;2022-11-04T13:46:17;9.47;;;2.47;;
5539;SDS011;2792;52.452;9.752;2022-11-04T13:48:53;2.67;;;2.40;;
5539;SDS011;2792;52.452;9.752;2022-11-04T13:51:27;6.67;;;2.43;;
5539;SDS011;2792;52.452;9.752;2022-11-04T13:54:03;2.80;;;2.60;;
5539;SDS011;2792;52.452;9.752;2022-11-04T13:56:31;3.10;;;2.80;;
5539;SDS011;2792;52.452;9.752;2022-11-04T13:58:59;5.10;;;2.83;;
5539;SDS011;2792;52.452;9.752;2022-11-04T14:01:30;5.40;;;2.57;;
5539;SDS011;2792;52.452;9.752;2022-11-04T14:04:13;4.90;;;3.00;;
5539;SDS011;2792;52.452;9.752;2022-11-04T14:06:52;5.60;;;2.63;;
5539;SDS011;2792;52.452;9.752;2022-11-04T14:12:33;4.50;;;2.87;;
5539;SDS011;2792;52.452;9.752;2022-11-04T14:15:11;5.23;;;3.17;;
5539;SDS011;2792;52.452;9.752;2022-11-04T14:17:57;5.23;;;2.70;;
5539;SDS011;2792;52.452;9.752;2022-11-04T14:20:32;6.80;;;3.60;;
5539;SDS011;2792;52.452;9.752;2022-11-04T14:23:01;6.67;;;4.03;;
5539;SDS011;2792;52.452;9.752;2022-11-04T14:25:30;3.80;;;2.50;;
5539;SDS011;2792;52.452;9.752;2022-11-04T14:27:59;4.00;;;2.60;;
5539;SDS011;2792;52.452;9.752;2022-11-04T14:30:40;3.27;;;2.23;;
5539;SDS011;2792;52.452;9.752;2022-11-04T14:33:16;7.27;;;2.80;;
5539;SDS011;2792;52.452;9.752;2022-11-04T14:35:49;6.20;;;2.73;;
5539;SDS011;2792;52.452;9.752;2022-11-04T14:38:22;4.00;;;2.30;;
5539;SDS011;2792;52.452;9.752;2022-11-04T14:40:52;6.00;;;2.70;;
5539;SDS011;2792;52.452;9.752;2022-11-04T14:43:38;7.33;;;2.50;;
5539;SDS011;2792;52.452;9.752;2022-11-04T14:46:07;5.73;;;2.70;;
5539;SDS011;2792;52.452;9.752;2022-11-04T14:48:34;3.87;;;2.40;;
5539;SDS011;2792;52.452;9.752;2022-11-04T14:51:02;4.27;;;2.43;;
5539;SDS011;2792;52.452;9.752;2022-11-04T14:53:30;2.20;;;2.10;;
5539;SDS011;2792;52.452;9.752;2022-11-04T14:56:02;2.90;;;2.40;;
5539;SDS011;2792;52.452;9.752;2022-11-04T14:58:35;5.90;;;2.90;;
5539;SDS011;2792;52.452;9.752;2022-11-04T15:01:02;3.90;;;2.10;;
5539;SDS011;2792;52.452;9.752;2022-11-04T15:03:32;4.07;;;2.37;;
5539;SDS011;2792;52.452;9.752;2022-11-04T15:06:03;7.03;;;2.80;;
5539;SDS011;2792;52.452;9.752;2022-11-04T15:08:31;3.93;;;3.57;;
5539;SDS011;2792;52.452;9.752;2022-11-04T15:11:01;3.50;;;3.20;;
5539;SDS011;2792;52.452;9.752;2022-11-04T15:13:33;6.27;;;3.53;;
5539;SDS011;2792;52.452;9.752;2022-11-04T15:16:02;5.20;;;3.07;;
5539;SDS011;2792;52.452;9.752;2022-11-04T15:18:33;3.80;;;2.73;;
5539;SDS011;2792;52.452;9.752;2022-11-04T15:21:05;4.13;;;2.87;;
5539;SDS011;2792;52.452;9.752;2022-11-04T15:23:33;7.93;;;3.03;;
5539;SDS011;2792;52.452;9.752;2022-11-04T15:26:02;5.30;;;3.00;;
5539;SDS011;2792;52.452;9.752;2022-11-04T15:28:31;5.57;;;3.60;;
5539;SDS011;2792;52.452;9.752;2022-11-04T15:31:05;3.60;;;3.07;;
5539;SDS011;2792;52.452;9.752;2022-11-04T15:33:36;3.33;;;3.03;;
5539;SDS011;2792;52.452;9.752;2022-11-04T15:36:06;4.73;;;3.40;;
5539;SDS011;2792;52.452;9.752;2022-11-04T15:38:35;3.77;;;2.93;;
5539;SDS011;2792;52.452;9.752;2022-11-04T15:41:04;4.10;;;2.70;;
5539;SDS011;2792;52.452;9.752;2022-11-04T15:43:45;4.70;;;3.57;;
5539;SDS011;2792;52.452;9.752;2022-11-04T15:46:17;6.23;;;3.53;;
5539;SDS011;2792;52.452;9.752;2022-11-04T15:48:58;6.73;;;4.27;;